Time;durP1;ratioP1;P1;durP2;ratioP2;P2;SDS_P1;SDS_P2;PMS_P1;PMS_P2;Temp;Humidity;BMP_temperature;BMP_pressure;BME280_temperature;BME280_humidity;BME280_pressure;Samples;Min_cycle;Max_cycle;Signal;HPM_P1;HPM_P2
2022/04/27 00:00:59;;;;;;;33.03;16.47;;;;;;;;;;5050682;28;20520;-70
2022/04/27 00:03:43;;;;;;;30.47;16.53;;;;;;;;;;5051082;28;20457;-70
2022/04/27 00:06:10;;;;;;;26.70;15.83;;;;;;;;;;5032919;28;20447;-70
2022/04/27 00:08:38;;;;;;;35.97;16.83;;;;;;;;;;5051089;28;20438;-70
2022/04/27 00:11:04;;;;;;;30.67;16.17;;;;;;;;;;5050915;28;20459;-70
2022/04/27 00:13:31;;;;;;;27.33;15.63;;;;;;;;;;5032358;28;20532;-70
2022/04/27 00:15:58;;;;;;;31.87;16.63;;;;;;;;;;5033322;28;20516;-70
2022/04/27 00:18:25;;;;;;;29.07;15.93;;;;;;;;;;5051017;28;20433;-70
2022/04/27 00:20:51;;;;;;;27.50;15.33;;;;;;;;;;5050747;28;20939;-70
2022/04/27 00:23:18;;;;;;;29.73;16.00;;;;;;;;;;5033367;28;20429;-70
2022/04/27 00:25:45;;;;;;;27.67;15.07;;;;;;;;;;5050788;28;20430;-70
2022/04/27 00:28:11;;;;;;;27.30;15.90;;;;;;;;;;5043699;28;20449;-70
2022/04/27 00:30:38;;;;;;;29.57;15.60;;;;;;;;;;5034348;28;20968;-70
2022/04/27 00:33:06;;;;;;;26.37;15.23;;;;;;;;;;5034361;28;20430;-70
2022/04/27 00:35:32;;;;;;;30.53;16.07;;;;;;;;;;5033122;28;20493;-70
2022/04/27 00:37:59;;;;;;;30.17;17.80;;;;;;;;;;5034762;28;20477;-70
2022/04/27 00:40:27;;;;;;;34.80;18.30;;;;;;;;;;5045398;28;20462;-70
2022/04/27 00:42:54;;;;;;;30.60;16.43;;;;;;;;;;5036478;28;20444;-70
2022/04/27 00:45:22;;;;;;;30.27;16.47;;;;;;;;;;5044128;28;20470;-70
2022/04/27 00:47:49;;;;;;;30.20;15.97;;;;;;;;;;5034108;28;20434;-70
2022/04/27 00:50:15;;;;;;;29.20;15.60;;;;;;;;;;5034088;28;20517;-70
2022/04/27 00:52:59;;;;;;;31.30;15.57;;;;;;;;;;5033994;28;20434;-70
2022/04/27 00:55:26;;;;;;;27.97;15.47;;;;;;;;;;5016530;28;20484;-70
2022/04/27 00:57:53;;;;;;;31.27;16.53;;;;;;;;;;5016558;28;20505;-70
2022/04/27 01:00:20;;;;;;;30.87;16.67;;;;;;;;;;5033774;28;20438;-70
2022/04/27 01:02:47;;;;;;;28.00;15.93;;;;;;;;;;5032517;28;20828;-70
2022/04/27 01:05:31;;;;;;;33.23;17.37;;;;;;;;;;5016004;28;20433;-70
2022/04/27 01:08:00;;;;;;;36.50;17.00;;;;;;;;;;5016199;28;20496;-70
2022/04/27 01:10:27;;;;;;;33.43;17.77;;;;;;;;;;5033613;28;20468;-70
2022/04/27 01:12:55;;;;;;;31.93;16.77;;;;;;;;;;5032343;28;20434;-70
2022/04/27 01:15:31;;;;;;;30.90;16.97;;;;;;;;;;5033574;28;20770;-70
2022/04/27 01:18:16;;;;;;;32.93;16.83;;;;;;;;;;5021047;28;20483;-70
2022/04/27 01:20:44;;;;;;;34.07;17.50;;;;;;;;;;5035816;28;20477;-70
2022/04/27 01:23:35;;;;;;;37.40;17.03;;;;;;;;;;5039647;28;20519;-70
2022/04/27 01:26:08;;;;;;;34.20;17.03;;;;;;;;;;5053287;28;20425;-70
2022/04/27 01:28:36;;;;;;;26.70;15.80;;;;;;;;;;5053442;28;20488;-70
2022/04/27 01:31:03;;;;;;;30.07;16.53;;;;;;;;;;5052932;28;20823;-70
2022/04/27 01:33:34;;;;;;;29.10;16.77;;;;;;;;;;5033323;28;20465;-70
2022/04/27 01:36:01;;;;;;;38.77;15.77;;;;;;;;;;5015825;28;20446;-70
2022/04/27 01:38:34;;;;;;;33.40;15.77;;;;;;;;;;5015698;28;20426;-70
2022/04/27 01:41:02;;;;;;;31.23;15.50;;;;;;;;;;5030822;28;20499;-70
2022/04/27 01:43:29;;;;;;;34.40;15.80;;;;;;;;;;5035251;28;20449;-70
2022/04/27 01:45:56;;;;;;;37.83;16.30;;;;;;;;;;5052985;28;20434;-70
2022/04/27 01:48:23;;;;;;;31.93;16.97;;;;;;;;;;5051769;28;20484;-70
2022/04/27 01:50:50;;;;;;;28.57;15.60;;;;;;;;;;5033739;28;20952;-70
2022/04/27 01:56:03;;;;;;;29.00;15.37;;;;;;;;;;5034668;28;20441;-70
2022/04/27 01:58:35;;;;;;;30.47;16.70;;;;;;;;;;5034977;28;20859;-70
2022/04/27 02:01:02;;;;;;;30.50;17.07;;;;;;;;;;5031359;28;20496;-70
2022/04/27 02:03:29;;;;;;;32.30;16.63;;;;;;;;;;5031404;28;20474;-70
2022/04/27 02:05:57;;;;;;;29.30;16.20;;;;;;;;;;5039752;28;20438;-70
2022/04/27 02:08:24;;;;;;;30.97;16.40;;;;;;;;;;5022531;28;20434;-70
2022/04/27 02:10:52;;;;;;;31.37;16.50;;;;;;;;;;5014702;28;20545;-70
2022/04/27 02:13:19;;;;;;;34.50;17.33;;;;;;;;;;5032475;28;21193;-70
2022/04/27 02:15:46;;;;;;;37.27;18.53;;;;;;;;;;5031193;28;20493;-70
2022/04/27 02:18:26;;;;;;;33.07;18.07;;;;;;;;;;5016491;28;20996;-71
2022/04/27 02:20:56;;;;;;;39.00;18.43;;;;;;;;;;5032480;28;20488;-70
2022/04/27 02:23:23;;;;;;;35.37;18.00;;;;;;;;;;5030942;28;20476;-70
2022/04/27 02:25:51;;;;;;;34.50;19.13;;;;;;;;;;5047074;28;20462;-70
2022/04/27 02:28:38;;;;;;;37.83;20.27;;;;;;;;;;5052074;28;20453;-70
2022/04/27 02:31:04;;;;;;;42.13;21.10;;;;;;;;;;5050611;28;20905;-70
2022/04/27 02:33:33;;;;;;;41.43;21.40;;;;;;;;;;5050966;28;20453;-70
2022/04/27 02:35:59;;;;;;;44.10;22.00;;;;;;;;;;5034330;28;20487;-70
2022/04/27 02:38:29;;;;;;;39.13;20.63;;;;;;;;;;5034281;28;20429;-70
2022/04/27 02:40:59;;;;;;;41.33;22.07;;;;;;;;;;5045261;28;21153;-70
2022/04/27 02:43:27;;;;;;;47.70;21.93;;;;;;;;;;5030669;28;20953;-69
2022/04/27 02:45:55;;;;;;;51.17;22.50;;;;;;;;;;5030951;28;20525;-70
2022/04/27 02:48:22;;;;;;;45.20;22.17;;;;;;;;;;5031738;28;20474;-70
2022/04/27 02:53:35;;;;;;;43.73;22.13;;;;;;;;;;5030534;28;20482;-70
2022/04/27 02:56:03;;;;;;;46.40;22.23;;;;;;;;;;5032037;28;20442;-70
2022/04/27 02:58:30;;;;;;;45.23;22.97;;;;;;;;;;5033746;28;20545;-70
2022/04/27 03:00:57;;;;;;;44.20;22.63;;;;;;;;;;5033866;28;20473;-70
2022/04/27 03:03:24;;;;;;;39.97;19.83;;;;;;;;;;5033356;28;20512;-69
2022/04/27 03:05:53;;;;;;;41.67;20.93;;;;;;;;;;5033941;28;20561;-69
2022/04/27 03:08:20;;;;;;;43.20;19.67;;;;;;;;;;5017178;28;20445;-70
2022/04/27 03:10:52;;;;;;;39.63;18.90;;;;;;;;;;5017948;28;20445;-70
2022/04/27 03:13:24;;;;;;;42.23;18.73;;;;;;;;;;5032539;28;21015;-69
2022/04/27 03:16:01;;;;;;;36.67;17.90;;;;;;;;;;5018943;28;20432;-70
2022/04/27 03:18:28;;;;;;;35.87;17.10;;;;;;;;;;5006751;28;20465;-69
2022/04/27 03:20:55;;;;;;;39.27;17.07;;;;;;;;;;5015697;28;20437;-70
2022/04/27 03:23:23;;;;;;;41.00;17.37;;;;;;;;;;5031350;28;20434;-71
2022/04/27 03:25:53;;;;;;;35.37;16.90;;;;;;;;;;5013667;28;20472;-71
2022/04/27 03:28:20;;;;;;;33.00;16.50;;;;;;;;;;5013756;28;20450;-71
2022/04/27 03:30:49;;;;;;;35.50;17.27;;;;;;;;;;5033261;28;20442;-71
2022/04/27 03:33:33;;;;;;;32.83;16.03;;;;;;;;;;5033150;28;20456;-70
2022/04/27 03:36:01;;;;;;;30.43;16.23;;;;;;;;;;5017244;28;20445;-71
2022/04/27 03:38:27;;;;;;;31.37;14.87;;;;;;;;;;5033277;28;20466;-73
2022/04/27 03:40:54;;;;;;;32.97;14.80;;;;;;;;;;5033214;28;20449;-72
2022/04/27 03:43:21;;;;;;;31.90;14.20;;;;;;;;;;5033240;28;20539;-70
2022/04/27 03:45:48;;;;;;;33.57;15.13;;;;;;;;;;5033172;28;20575;-69
2022/04/27 03:48:15;;;;;;;36.17;15.33;;;;;;;;;;5040519;28;20445;-71
2022/04/27 03:50:43;;;;;;;32.20;14.23;;;;;;;;;;5013377;28;20439;-70
2022/04/27 03:53:10;;;;;;;33.83;14.33;;;;;;;;;;5031056;28;20505;-72
2022/04/27 03:55:37;;;;;;;31.13;14.67;;;;;;;;;;5013565;28;20480;-69
2022/04/27 03:58:21;;;;;;;36.67;14.97;;;;;;;;;;5015804;28;20436;-69
2022/04/27 04:00:48;;;;;;;38.40;15.93;;;;;;;;;;5013405;28;20853;-68
2022/04/27 04:03:19;;;;;;;36.70;16.13;;;;;;;;;;5015249;28;21029;-70
2022/04/27 04:05:51;;;;;;;36.50;16.37;;;;;;;;;;5035881;28;20876;-68
2022/04/27 04:08:17;;;;;;;40.33;17.23;;;;;;;;;;5053323;28;20527;-71
2022/04/27 04:10:46;;;;;;;34.37;16.47;;;;;;;;;;5036789;28;20442;-69
2022/04/27 04:13:13;;;;;;;38.57;17.97;;;;;;;;;;5036803;28;21024;-70
2022/04/27 04:16:00;;;;;;;37.33;18.87;;;;;;;;;;5054117;28;20426;-69
2022/04/27 04:18:46;;;;;;;33.63;17.90;;;;;;;;;;5054405;28;20849;-72
2022/04/27 04:21:17;;;;;;;30.53;18.00;;;;;;;;;;5018359;28;20450;-71
2022/04/27 04:24:01;;;;;;;35.07;19.53;;;;;;;;;;5026382;28;20511;-71
2022/04/27 04:29:18;;;;;;;26.10;15.47;;;;;;;;;;5029024;28;20467;-70
2022/04/27 04:31:45;;;;;;;23.97;14.40;;;;;;;;;;5028373;28;20478;-70
2022/04/27 04:34:30;;;;;;;19.07;12.97;;;;;;;;;;5027962;28;20460;-71
2022/04/27 04:36:57;;;;;;;19.60;10.73;;;;;;;;;;5045395;28;20445;-70
2022/04/27 04:39:24;;;;;;;14.43;10.33;;;;;;;;;;5026287;28;20451;-70
2022/04/27 04:41:51;;;;;;;15.23;10.63;;;;;;;;;;5022696;28;21181;-69
2022/04/27 04:44:18;;;;;;;18.13;11.90;;;;;;;;;;5030197;28;20434;-69
2022/04/27 04:47:21;;;;;;;24.13;12.00;;;;;;;;;;4987057;28;20452;-69
2022/04/27 04:50:25;;;;;;;18.83;11.70;;;;;;;;;;5026265;28;20463;-70
2022/04/27 04:53:15;;;;;;;24.40;12.10;;;;;;;;;;5005942;28;20533;-70
2022/04/27 04:56:02;;;;;;;16.30;11.87;;;;;;;;;;5024865;28;20426;-72
2022/04/27 04:58:48;;;;;;;19.77;11.90;;;;;;;;;;5027742;28;20538;-68
2022/04/27 05:01:32;;;;;;;12.20;8.63;;;;;;;;;;5048123;28;20562;-68
2022/04/27 05:04:32;;;;;;;14.67;9.77;;;;;;;;;;5009849;28;20821;-70
2022/04/27 05:07:37;;;;;;;14.87;9.97;;;;;;;;;;4966431;28;20432;-70
2022/04/27 05:10:13;;;;;;;14.77;9.73;;;;;;;;;;4972879;28;20447;-69
2022/04/27 05:13:06;;;;;;;12.33;8.80;;;;;;;;;;5011864;28;20477;-69
2022/04/27 05:15:52;;;;;;;12.90;8.90;;;;;;;;;;5043395;28;20522;-69
2022/04/27 05:18:37;;;;;;;13.53;9.33;;;;;;;;;;5044966;28;20456;-69
2022/04/27 05:21:27;;;;;;;17.47;11.60;;;;;;;;;;5037249;28;20466;-70
2022/04/27 05:24:39;;;;;;;10.60;7.47;;;;;;;;;;5038537;28;20632;-70
2022/04/27 05:27:32;;;;;;;11.00;7.30;;;;;;;;;;5029525;28;20449;-69
2022/04/27 05:33:26;;;;;;;8.13;5.93;;;;;;;;;;5045499;28;20540;-69
2022/04/27 05:35:59;;;;;;;8.30;4.83;;;;;;;;;;5028422;28;20429;-69
2022/04/27 05:38:55;;;;;;;6.73;4.90;;;;;;;;;;5025928;28;20453;-69
2022/04/27 05:41:32;;;;;;;6.73;4.50;;;;;;;;;;5027385;28;20441;-69
2022/04/27 05:44:19;;;;;;;6.67;3.80;;;;;;;;;;5029349;28;20441;-69
2022/04/27 05:46:58;;;;;;;4.87;3.67;;;;;;;;;;5026477;28;21159;-69
2022/04/27 05:49:35;;;;;;;12.43;4.30;;;;;;;;;;5028813;28;20458;-69
2022/04/27 05:52:47;;;;;;;7.13;3.60;;;;;;;;;;5043033;28;20569;-70
2022/04/27 05:55:47;;;;;;;4.80;3.33;;;;;;;;;;5009624;28;20456;-70
2022/04/27 05:58:44;;;;;;;5.77;2.73;;;;;;;;;;4988226;28;20211;-69
2022/04/27 06:01:14;;;;;;;5.90;3.03;;;;;;;;;;5028696;28;20437;-69
2022/04/27 06:04:03;;;;;;;7.77;2.77;;;;;;;;;;5042904;28;20317;-69
2022/04/27 06:06:35;;;;;;;5.63;2.60;;;;;;;;;;5027611;28;20194;-70
2022/04/27 06:09:06;;;;;;;5.13;2.70;;;;;;;;;;5024971;28;20253;-70
2022/04/27 06:12:08;;;;;;;3.63;2.30;;;;;;;;;;4965163;28;20615;-70
2022/04/27 06:14:44;;;;;;;4.40;2.70;;;;;;;;;;5032504;28;20440;-70
2022/04/27 06:17:26;;;;;;;4.80;2.83;;;;;;;;;;5025858;28;20230;-69
2022/04/27 06:19:53;;;;;;;5.50;2.47;;;;;;;;;;5025926;28;20241;-70
2022/04/27 06:22:20;;;;;;;5.63;2.47;;;;;;;;;;5028082;28;20457;-67
2022/04/27 06:24:48;;;;;;;3.93;2.20;;;;;;;;;;5027036;28;20257;-67
2022/04/27 06:27:37;;;;;;;2.50;2.10;;;;;;;;;;5026367;28;20203;-67
2022/04/27 06:30:04;;;;;;;5.13;2.57;;;;;;;;;;5026679;28;20195;-67
2022/04/27 06:32:34;;;;;;;5.43;2.60;;;;;;;;;;5025336;28;21384;-72
2022/04/27 06:35:09;;;;;;;4.80;2.13;;;;;;;;;;5026371;28;20224;-70
2022/04/27 06:37:37;;;;;;;4.47;2.30;;;;;;;;;;5025251;28;20453;-70
2022/04/27 06:40:05;;;;;;;4.33;2.20;;;;;;;;;;5042545;28;20425;-71
2022/04/27 06:42:33;;;;;;;3.57;2.00;;;;;;;;;;5026500;28;20464;-70
2022/04/27 06:45:32;;;;;;;3.77;2.00;;;;;;;;;;4987768;28;20211;-70
2022/04/27 06:48:17;;;;;;;4.63;2.10;;;;;;;;;;5042672;28;20432;-71
2022/04/27 06:51:03;;;;;;;3.30;2.10;;;;;;;;;;5042815;28;20194;-69
2022/04/27 06:53:47;;;;;;;5.40;2.30;;;;;;;;;;5038928;28;20884;-69
2022/04/27 06:56:34;;;;;;;6.10;2.17;;;;;;;;;;5034968;28;20207;-70
2022/04/27 06:59:19;;;;;;;3.47;2.00;;;;;;;;;;5028321;28;20203;-70
2022/04/27 07:01:55;;;;;;;3.73;1.93;;;;;;;;;;5027521;28;20221;-70
2022/04/27 07:04:22;;;;;;;3.73;1.90;;;;;;;;;;5026508;28;20214;-71
2022/04/27 07:06:49;;;;;;;4.73;2.30;;;;;;;;;;5026186;28;20236;-70
2022/04/27 07:09:16;;;;;;;4.97;2.30;;;;;;;;;;5024749;28;20441;-70
2022/04/27 07:11:44;;;;;;;4.17;2.07;;;;;;;;;;5040699;28;20278;-71
2022/04/27 07:14:15;;;;;;;5.70;2.30;;;;;;;;;;5039123;28;20327;-69
2022/04/27 07:16:43;;;;;;;3.80;2.37;;;;;;;;;;5041405;28;20210;-68
2022/04/27 07:19:10;;;;;;;7.87;6.50;;;;;;;;;;5042340;28;20190;-71
2022/04/27 07:21:37;;;;;;;4.50;2.30;;;;;;;;;;5025487;28;20197;-67
2022/04/27 07:24:04;;;;;;;5.10;1.87;;;;;;;;;;5026753;28;20318;-67
2022/04/27 07:26:31;;;;;;;3.90;2.17;;;;;;;;;;5038018;28;20231;-67
2022/04/27 07:28:58;;;;;;;7.30;2.70;;;;;;;;;;5026311;28;20199;-68
2022/04/27 07:31:25;;;;;;;2.97;2.20;;;;;;;;;;5042082;28;20244;-70
2022/04/27 07:33:52;;;;;;;3.97;2.33;;;;;;;;;;5040877;28;20238;-69
2022/04/27 07:36:19;;;;;;;4.47;2.30;;;;;;;;;;5038589;28;20183;-69
2022/04/27 07:38:46;;;;;;;4.20;2.47;;;;;;;;;;5029890;28;20252;-69
2022/04/27 07:41:13;;;;;;;5.87;2.50;;;;;;;;;;5044879;28;20938;-68
2022/04/27 07:43:41;;;;;;;3.90;2.43;;;;;;;;;;5045588;28;20468;-68
2022/04/27 07:46:09;;;;;;;5.13;2.23;;;;;;;;;;5044419;28;20207;-69
2022/04/27 07:48:36;;;;;;;4.07;2.67;;;;;;;;;;5046515;28;20535;-69
2022/04/27 07:51:06;;;;;;;5.10;2.83;;;;;;;;;;5046066;28;20186;-69
2022/04/27 07:53:32;;;;;;;87.83;48.70;;;;;;;;;;5043582;28;20253;-68
2022/04/27 07:55:59;;;;;;;12.97;10.90;;;;;;;;;;5045238;28;20253;-69
2022/04/27 07:58:26;;;;;;;4.67;2.23;;;;;;;;;;5045774;28;20244;-66
2022/04/27 08:00:53;;;;;;;2.57;2.00;;;;;;;;;;5044756;28;20567;-66
2022/04/27 08:03:19;;;;;;;3.20;2.10;;;;;;;;;;5044167;28;20238;-69
2022/04/27 08:05:46;;;;;;;4.20;2.10;;;;;;;;;;5044010;28;20238;-70
2022/04/27 08:08:13;;;;;;;4.07;2.37;;;;;;;;;;5035284;28;20547;-71
2022/04/27 08:10:45;;;;;;;4.90;3.00;;;;;;;;;;5043903;28;20553;-72
2022/04/27 08:13:12;;;;;;;4.00;2.40;;;;;;;;;;5026461;28;20276;-70
2022/04/27 08:15:40;;;;;;;4.97;2.57;;;;;;;;;;5027490;28;20675;-68
2022/04/27 08:18:07;;;;;;;2.43;2.03;;;;;;;;;;5043291;28;20195;-68
2022/04/27 08:23:20;;;;;;;2.70;1.40;;;;;;;;;;5044885;28;20190;-69
2022/04/27 08:25:49;;;;;;;2.53;1.30;;;;;;;;;;5016746;28;20234;-69
2022/04/27 08:28:16;;;;;;;2.53;1.10;;;;;;;;;;5043845;28;20222;-67
2022/04/27 08:30:43;;;;;;;1.80;1.13;;;;;;;;;;5044590;28;20190;-69
2022/04/27 08:33:11;;;;;;;2.07;1.10;;;;;;;;;;5044051;28;20210;-69
2022/04/27 08:35:38;;;;;;;2.63;1.30;;;;;;;;;;5028742;28;20244;-70
2022/04/27 08:38:05;;;;;;;2.07;1.30;;;;;;;;;;5046546;28;20185;-70
2022/04/27 08:40:34;;;;;;;4.97;1.30;;;;;;;;;;5046336;28;20194;-68
2022/04/27 08:43:01;;;;;;;1.53;1.10;;;;;;;;;;5046307;28;20345;-68
2022/04/27 08:45:29;;;;;;;2.33;1.30;;;;;;;;;;5047141;28;20222;-68
2022/04/27 08:47:57;;;;;;;2.13;1.33;;;;;;;;;;5044016;28;20754;-68
2022/04/27 08:50:24;;;;;;;3.17;1.23;;;;;;;;;;5044506;28;20677;-68
2022/04/27 08:52:51;;;;;;;2.63;1.73;;;;;;;;;;5045950;28;20230;-68
2022/04/27 08:55:18;;;;;;;4.93;2.60;;;;;;;;;;5027816;28;20284;-68
2022/04/27 08:57:45;;;;;;;4.27;2.10;;;;;;;;;;5042266;28;20206;-68
2022/04/27 09:00:13;;;;;;;8.37;2.73;;;;;;;;;;5045019;28;20234;-72
2022/04/27 09:03:17;;;;;;;3.03;1.87;;;;;;;;;;5043752;28;20189;-73
2022/04/27 09:05:50;;;;;;;4.73;1.57;;;;;;;;;;5041967;28;20205;-69
2022/04/27 09:08:17;;;;;;;4.40;2.20;;;;;;;;;;5027170;28;20203;-74
2022/04/27 09:10:44;;;;;;;3.10;1.50;;;;;;;;;;5031733;28;20745;-71
2022/04/27 09:13:11;;;;;;;2.83;1.57;;;;;;;;;;5043043;28;20638;-70
2022/04/27 09:15:40;;;;;;;3.07;1.50;;;;;;;;;;5043488;28;20281;-68
2022/04/27 09:20:59;;;;;;;4.23;1.80;;;;;;;;;;5041447;28;20196;-70
2022/04/27 09:23:36;;;;;;;3.63;2.10;;;;;;;;;;5044846;28;20250;-71
2022/04/27 09:26:18;;;;;;;2.67;2.10;;;;;;;;;;5042453;28;20205;-70
2022/04/27 09:28:48;;;;;;;3.20;1.57;;;;;;;;;;5042056;28;20186;-73
2022/04/27 09:31:27;;;;;;;2.00;1.23;;;;;;;;;;5043448;28;20217;-69
2022/04/27 09:33:57;;;;;;;4.93;1.23;;;;;;;;;;5041087;28;20303;-68
2022/04/27 09:36:26;;;;;;;2.43;1.10;;;;;;;;;;5042641;28;20210;-68
2022/04/27 09:38:53;;;;;;;3.60;1.00;;;;;;;;;;5042227;28;20249;-68
2022/04/27 09:41:37;;;;;;;1.87;0.90;;;;;;;;;;5042907;28;20183;-68
2022/04/27 09:44:04;;;;;;;2.37;1.30;;;;;;;;;;5043405;28;20194;-69
2022/04/27 09:46:32;;;;;;;1.97;0.90;;;;;;;;;;5041970;28;20249;-69
2022/04/27 09:49:01;;;;;;;2.73;1.03;;;;;;;;;;5043129;28;20220;-68
2022/04/27 09:51:49;;;;;;;2.87;0.80;;;;;;;;;;5039514;28;20226;-73
2022/04/27 09:54:17;;;;;;;2.83;0.70;;;;;;;;;;5034444;28;20686;-71
2022/04/27 09:56:56;;;;;;;1.07;0.67;;;;;;;;;;5022226;28;20978;-69
2022/04/27 09:59:29;;;;;;;1.30;0.70;;;;;;;;;;5039699;28;20282;-71
2022/04/27 10:01:57;;;;;;;2.83;0.70;;;;;;;;;;5040197;28;20207;-71
2022/04/27 10:04:28;;;;;;;3.90;0.63;;;;;;;;;;5023100;28;20525;-70
2022/04/27 10:06:56;;;;;;;2.30;1.03;;;;;;;;;;5039976;28;20271;-69
2022/04/27 10:09:23;;;;;;;1.27;0.70;;;;;;;;;;5010885;28;20594;-71
2022/04/27 10:12:11;;;;;;;2.17;0.60;;;;;;;;;;5037426;28;20185;-73
2022/04/27 10:14:39;;;;;;;2.50;0.70;;;;;;;;;;5036922;28;20234;-70
2022/04/27 10:17:06;;;;;;;1.73;0.60;;;;;;;;;;5022194;28;20210;-70
2022/04/27 10:19:33;;;;;;;0.70;0.60;;;;;;;;;;5037356;28;21180;-65
2022/04/27 10:22:02;;;;;;;4.47;0.80;;;;;;;;;;5038668;28;20293;-66
2022/04/27 10:24:35;;;;;;;4.10;0.70;;;;;;;;;;5037700;28;20201;-68
2022/04/27 10:27:21;;;;;;;1.30;0.60;;;;;;;;;;5037234;28;20278;-67
2022/04/27 10:30:00;;;;;;;2.03;0.83;;;;;;;;;;5038217;28;20688;-69
2022/04/27 10:32:47;;;;;;;2.20;0.60;;;;;;;;;;5029137;28;20258;-66
2022/04/27 10:35:21;;;;;;;1.67;0.67;;;;;;;;;;5036918;28;20580;-70
2022/04/27 10:37:58;;;;;;;3.50;0.87;;;;;;;;;;5039545;28;20186;-66
2022/04/27 10:40:37;;;;;;;2.70;0.90;;;;;;;;;;5018990;28;20194;-68
2022/04/27 10:43:08;;;;;;;1.20;0.63;;;;;;;;;;5021807;28;20198;-68
2022/04/27 10:45:35;;;;;;;1.70;0.67;;;;;;;;;;5037066;28;20201;-71
2022/04/27 10:48:04;;;;;;;1.97;0.60;;;;;;;;;;5038311;28;20284;-69
2022/04/27 10:50:33;;;;;;;3.00;0.60;;;;;;;;;;5038867;28;20524;-68
2022/04/27 10:53:16;;;;;;;1.43;0.70;;;;;;;;;;5038902;28;20205;-60
2022/04/27 10:55:59;;;;;;;2.70;0.60;;;;;;;;;;5038851;28;20895;-68
2022/04/27 10:58:30;;;;;;;1.33;0.67;;;;;;;;;;5039660;28;20252;-70
2022/04/27 11:01:03;;;;;;;1.00;0.50;;;;;;;;;;5037846;28;20202;-69
2022/04/27 11:03:31;;;;;;;1.37;0.57;;;;;;;;;;5038647;28;20231;-71
2022/04/27 11:06:02;;;;;;;1.00;0.60;;;;;;;;;;5037731;28;20294;-71
2022/04/27 11:08:29;;;;;;;2.33;0.70;;;;;;;;;;5022374;28;20194;-69
2022/04/27 11:10:56;;;;;;;2.33;0.60;;;;;;;;;;5030400;28;20720;-69
2022/04/27 11:13:26;;;;;;;2.10;0.73;;;;;;;;;;5037609;28;20630;-70
2022/04/27 11:15:53;;;;;;;1.50;0.40;;;;;;;;;;5038902;28;20317;-69
2022/04/27 11:18:20;;;;;;;3.77;0.60;;;;;;;;;;5037325;28;20252;-67
2022/04/27 11:20:47;;;;;;;2.40;0.70;;;;;;;;;;5035782;28;20195;-69
2022/04/27 11:23:20;;;;;;;1.60;0.73;;;;;;;;;;5022573;28;20829;-68
2022/04/27 11:25:50;;;;;;;1.70;0.80;;;;;;;;;;5038530;28;20190;-68
2022/04/27 11:28:36;;;;;;;3.23;0.70;;;;;;;;;;5038041;28;20208;-68
2022/04/27 11:31:02;;;;;;;1.13;0.40;;;;;;;;;;5038299;28;20193;-69
2022/04/27 11:33:30;;;;;;;2.10;0.67;;;;;;;;;;5025411;28;20230;-70
2022/04/27 11:35:57;;;;;;;2.40;0.53;;;;;;;;;;5036508;28;20213;-70
2022/04/27 11:38:32;;;;;;;1.93;0.70;;;;;;;;;;5019595;28;20581;-70
2022/04/27 11:40:59;;;;;;;2.07;0.70;;;;;;;;;;5036588;28;20205;-70
2022/04/27 11:43:27;;;;;;;2.43;0.60;;;;;;;;;;5022572;28;20738;-71
2022/04/27 11:45:55;;;;;;;2.87;0.80;;;;;;;;;;5038501;28;20195;-69
2022/04/27 11:48:22;;;;;;;3.13;0.70;;;;;;;;;;5036599;28;20183;-70
2022/04/27 11:51:06;;;;;;;2.30;0.73;;;;;;;;;;5038121;28;20167;-71
2022/04/27 11:53:43;;;;;;;2.40;0.80;;;;;;;;;;5039683;28;20257;-71
2022/04/27 11:56:10;;;;;;;1.70;0.63;;;;;;;;;;5021220;28;20202;-69
2022/04/27 11:58:38;;;;;;;2.90;0.70;;;;;;;;;;5038526;28;20191;-70
2022/04/27 12:01:05;;;;;;;2.53;0.70;;;;;;;;;;5039545;28;20218;-69
2022/04/27 12:03:38;;;;;;;3.17;0.60;;;;;;;;;;5038386;28;20577;-70
2022/04/27 12:06:05;;;;;;;2.50;0.80;;;;;;;;;;5038006;28;20304;-68
2022/04/27 12:08:33;;;;;;;1.27;0.60;;;;;;;;;;5039195;28;20282;-69
2022/04/27 12:11:02;;;;;;;2.30;1.13;;;;;;;;;;5025817;28;20230;-69
2022/04/27 12:13:29;;;;;;;1.90;0.60;;;;;;;;;;5039127;28;20242;-69
2022/04/27 12:16:13;;;;;;;1.63;0.70;;;;;;;;;;5037119;28;20183;-69
2022/04/27 12:18:49;;;;;;;2.30;0.80;;;;;;;;;;5036138;28;20549;-68
2022/04/27 12:21:20;;;;;;;1.03;0.60;;;;;;;;;;5036568;28;20252;-70
2022/04/27 12:23:47;;;;;;;2.30;0.70;;;;;;;;;;5039662;28;20194;-68
2022/04/27 12:26:17;;;;;;;1.13;0.57;;;;;;;;;;5041234;28;20630;-69
2022/04/27 12:28:49;;;;;;;0.90;0.50;;;;;;;;;;5039591;28;20198;-68
2022/04/27 12:31:17;;;;;;;1.07;0.67;;;;;;;;;;5039593;28;20193;-70
2022/04/27 12:33:48;;;;;;;2.90;0.70;;;;;;;;;;5030553;28;20241;-70
2022/04/27 12:39:20;;;;;;;0.87;0.57;;;;;;;;;;5021925;28;20559;-70
2022/04/27 12:41:47;;;;;;;1.00;0.60;;;;;;;;;;5041942;28;20194;-72
2022/04/27 12:44:15;;;;;;;3.97;0.90;;;;;;;;;;5039593;28;20567;-68
2022/04/27 12:47:09;;;;;;;1.47;0.57;;;;;;;;;;5041992;28;20205;-68
2022/04/27 12:49:36;;;;;;;1.07;0.60;;;;;;;;;;5040900;28;20596;-70
2022/04/27 12:52:23;;;;;;;1.63;0.50;;;;;;;;;;5041585;28;20191;-67
2022/04/27 12:55:04;;;;;;;1.87;0.70;;;;;;;;;;5042064;28;20216;-67
2022/04/27 12:57:49;;;;;;;3.47;0.60;;;;;;;;;;5042355;28;20195;-67
2022/04/27 13:00:17;;;;;;;2.43;0.70;;;;;;;;;;5041532;28;20558;-68
2022/04/27 13:02:44;;;;;;;0.90;0.40;;;;;;;;;;5040006;28;20670;-68
2022/04/27 13:05:12;;;;;;;2.07;0.50;;;;;;;;;;5041522;28;20234;-67
2022/04/27 13:07:40;;;;;;;1.03;0.53;;;;;;;;;;5040493;28;20297;-69
2022/04/27 13:13:11;;;;;;;1.57;0.50;;;;;;;;;;5023865;28;20251;-70
2022/04/27 13:15:38;;;;;;;1.60;0.47;;;;;;;;;;5041212;28;20282;-70
2022/04/27 13:18:05;;;;;;;2.57;0.47;;;;;;;;;;5039870;28;20203;-70
2022/04/27 13:20:32;;;;;;;2.10;0.40;;;;;;;;;;5041638;28;21195;-68
2022/04/27 13:22:59;;;;;;;1.13;0.50;;;;;;;;;;5041568;28;20304;-68
2022/04/27 13:25:26;;;;;;;0.93;0.50;;;;;;;;;;5042130;28;20278;-68
2022/04/27 13:27:53;;;;;;;1.73;0.53;;;;;;;;;;5041734;28;20523;-68
2022/04/27 13:30:20;;;;;;;1.13;0.40;;;;;;;;;;5040650;28;20194;-69
2022/04/27 13:32:48;;;;;;;1.63;0.50;;;;;;;;;;5024893;28;20676;-68
2022/04/27 13:35:15;;;;;;;2.97;0.60;;;;;;;;;;5040402;28;20260;-68
2022/04/27 13:37:41;;;;;;;2.07;0.50;;;;;;;;;;5037590;28;20661;-70
2022/04/27 13:40:08;;;;;;;2.60;0.50;;;;;;;;;;5040113;28;20206;-70
2022/04/27 13:42:37;;;;;;;2.40;0.70;;;;;;;;;;5039895;28;20598;-69
2022/04/27 13:45:04;;;;;;;2.00;0.57;;;;;;;;;;5039193;28;20183;-68
2022/04/27 13:47:33;;;;;;;2.93;0.60;;;;;;;;;;5040686;28;20185;-68
2022/04/27 13:50:20;;;;;;;3.70;0.70;;;;;;;;;;5040572;28;20911;-70
2022/04/27 13:52:49;;;;;;;13.17;3.80;;;;;;;;;;5040511;28;20927;-70
2022/04/27 13:55:16;;;;;;;1.17;0.40;;;;;;;;;;5039207;28;20223;-69
2022/04/27 13:57:43;;;;;;;3.77;0.70;;;;;;;;;;5040650;28;20217;-69
2022/04/27 14:00:10;;;;;;;1.60;0.80;;;;;;;;;;5037588;28;20275;-69
2022/04/27 14:02:38;;;;;;;3.53;0.80;;;;;;;;;;5039442;28;20206;-69
2022/04/27 14:05:07;;;;;;;1.50;0.53;;;;;;;;;;5044651;28;20230;-69
2022/04/27 14:07:36;;;;;;;1.30;0.53;;;;;;;;;;5048771;28;20195;-69
2022/04/27 14:10:04;;;;;;;3.30;0.80;;;;;;;;;;5048588;28;20713;-69
2022/04/27 14:15:34;;;;;;;1.80;0.60;;;;;;;;;;5048439;28;20234;-69
2022/04/27 14:18:10;;;;;;;1.50;0.60;;;;;;;;;;5031229;28;20306;-70
2022/04/27 14:20:40;;;;;;;1.87;0.50;;;;;;;;;;5048428;28;20205;-69
2022/04/27 14:23:25;;;;;;;1.23;0.60;;;;;;;;;;5048321;28;20171;-69
2022/04/27 14:25:52;;;;;;;2.60;0.50;;;;;;;;;;5030752;28;20669;-68
2022/04/27 14:28:19;;;;;;;3.03;0.60;;;;;;;;;;5031065;28;20206;-67
2022/04/27 14:30:47;;;;;;;1.90;0.70;;;;;;;;;;5030639;28;20190;-68
2022/04/27 14:33:15;;;;;;;1.23;0.60;;;;;;;;;;5030812;28;20182;-68
2022/04/27 14:35:44;;;;;;;0.93;0.50;;;;;;;;;;5047691;28;20207;-68
2022/04/27 14:38:11;;;;;;;2.67;0.60;;;;;;;;;;5030662;28;20275;-68
2022/04/27 14:40:38;;;;;;;0.77;0.40;;;;;;;;;;5048237;28;20549;-68
2022/04/27 14:43:05;;;;;;;2.50;0.93;;;;;;;;;;5068551;28;20276;-68
2022/04/27 14:45:32;;;;;;;2.20;0.60;;;;;;;;;;5050359;28;20204;-68
2022/04/27 14:47:59;;;;;;;1.27;0.43;;;;;;;;;;5066230;28;20204;-69
2022/04/27 14:50:26;;;;;;;2.20;0.80;;;;;;;;;;5067982;28;20178;-69
2022/04/27 14:52:53;;;;;;;1.73;0.87;;;;;;;;;;5068105;28;20190;-69
2022/04/27 14:55:19;;;;;;;1.90;0.70;;;;;;;;;;5050444;28;20209;-69
2022/04/27 14:57:47;;;;;;;2.13;0.63;;;;;;;;;;5067892;28;20557;-69
2022/04/27 15:00:14;;;;;;;1.57;0.50;;;;;;;;;;5067994;28;20545;-69
2022/04/27 15:02:41;;;;;;;2.03;0.63;;;;;;;;;;5066396;28;20553;-69
2022/04/27 15:05:11;;;;;;;4.80;1.00;;;;;;;;;;5067195;28;20249;-69
2022/04/27 15:07:38;;;;;;;3.53;0.90;;;;;;;;;;5067533;28;20194;-69
2022/04/27 15:10:07;;;;;;;4.03;2.27;;;;;;;;;;5034780;28;20244;-69
2022/04/27 15:12:34;;;;;;;2.37;1.20;;;;;;;;;;5040254;28;20181;-69
2022/04/27 15:15:00;;;;;;;3.43;0.80;;;;;;;;;;5067595;28;20236;-69
2022/04/27 15:17:27;;;;;;;3.87;0.50;;;;;;;;;;5067485;28;20190;-69
2022/04/27 15:22:47;;;;;;;1.60;1.10;;;;;;;;;;5067462;28;20616;-69
2022/04/27 15:25:32;;;;;;;2.83;0.90;;;;;;;;;;5067676;28;20545;-69
2022/04/27 15:28:00;;;;;;;21.03;1.90;;;;;;;;;;5067722;28;20186;-68
2022/04/27 15:30:28;;;;;;;3.53;0.53;;;;;;;;;;5067683;28;20228;-69